createdAt,value
2023-03-11T05:38:06.166Z,2.40
2023-03-11T05:53:08.622Z,2.50
2023-03-11T06:08:10.618Z,2.40
2023-03-11T06:23:12.757Z,2.30
2023-03-11T06:38:14.956Z,2.20
2023-03-11T06:53:18.039Z,2.60
2023-03-11T07:08:20.186Z,2.45
2023-03-11T07:23:22.484Z,2.50
2023-03-11T07:38:24.358Z,2.40
2023-03-11T07:53:26.370Z,2.63
2023-03-11T08:08:28.299Z,2.80
2023-03-11T08:23:30.188Z,2.70
2023-03-11T08:38:32.113Z,3.17
2023-03-11T08:53:33.962Z,2.80
2023-03-11T09:08:36.149Z,2.85
2023-03-11T09:23:38.215Z,2.90
2023-03-11T09:38:40.348Z,2.70
2023-03-11T09:53:47.808Z,2.90
2023-03-11T10:09:29.799Z,3.72
2023-03-11T10:24:53.266Z,2.75
2023-03-11T10:39:55.171Z,3.03
2023-03-11T10:55:01.349Z,3.05
2023-03-11T11:10:12.404Z,2.78
2023-03-11T11:25:37.078Z,4.05
2023-03-11T11:40:38.964Z,3.28
2023-03-11T11:55:44.267Z,3.20
2023-03-11T12:10:47.480Z,3.40
2023-03-11T12:26:18.268Z,3.13
2023-03-11T12:41:30.958Z,3.00
2023-03-11T12:56:41.076Z,3.10
2023-03-11T13:11:45.056Z,3.20
2023-03-11T13:27:09.624Z,2.95
2023-03-11T13:42:25.521Z,3.00
2023-03-11T13:57:37.454Z,3.00
2023-03-11T14:12:39.319Z,3.65
2023-03-11T14:27:41.172Z,3.00
2023-03-11T14:42:43.922Z,2.78
2023-03-11T14:57:51.188Z,3.22
2023-03-11T15:12:53.053Z,2.95
2023-03-11T15:27:54.986Z,2.80
2023-03-11T15:43:30.601Z,3.05
2023-03-11T15:58:32.477Z,3.20
2023-03-11T16:13:34.373Z,2.85
2023-03-11T16:28:36.268Z,2.78
2023-03-11T16:43:38.136Z,2.83
2023-03-11T16:58:40.013Z,2.72
2023-03-11T17:13:41.901Z,2.70
2023-03-11T17:28:43.834Z,2.70
2023-03-11T17:43:45.850Z,2.95
2023-03-11T17:58:48.144Z,3.60
2023-03-11T18:13:50.198Z,3.33
2023-03-11T18:28:55.918Z,3.30
2023-03-11T18:43:58.095Z,3.30
2023-03-11T18:59:00.234Z,3.20
2023-03-11T19:14:02.365Z,2.88
2023-03-11T19:29:05.041Z,2.90
2023-03-11T19:44:07.398Z,3.03
2023-03-11T19:59:09.481Z,4.45
2023-03-11T20:14:11.523Z,3.72
2023-03-11T20:29:13.549Z,3.75
2023-03-11T20:44:16.001Z,3.30
2023-03-11T20:59:18.091Z,3.72
2023-03-11T21:14:20.039Z,3.40
2023-03-11T21:29:22.101Z,3.20
2023-03-11T21:44:24.125Z,3.60
2023-03-11T21:59:26.135Z,3.47
2023-03-11T22:14:28.507Z,3.90
2023-03-11T22:29:30.511Z,3.75
2023-03-11T22:44:32.367Z,4.00
2023-03-11T22:59:34.329Z,4.18
